createdAt,value
2019-02-24T00:00:03.072Z,9.83
2019-02-24T00:01:03.395Z,9.39
2019-02-24T00:02:03.046Z,9.2
2019-02-24T00:03:02.802Z,10.45
2019-02-24T00:04:03.191Z,10.84
2019-02-24T00:05:03.279Z,9.18
2019-02-24T00:06:02.750Z,11.17
2019-02-24T00:07:03.515Z,8.04
2019-02-24T00:08:02.736Z,8.27
2019-02-24T00:09:03.446Z,8.45
2019-02-24T00:10:03.060Z,12.68
2019-02-24T00:11:02.607Z,9.6
2019-02-24T00:12:02.978Z,8.28
2019-02-24T00:13:03.643Z,8.24
2019-02-24T00:14:02.865Z,9.55
2019-02-24T00:15:03.628Z,10.05
2019-02-24T00:16:02.872Z,10.26
2019-02-24T00:17:03.427Z,11.38
2019-02-24T00:18:02.944Z,8.64
2019-02-24T00:19:03.817Z,8.79
2019-02-24T00:20:03.101Z,7.16
2019-02-24T00:21:03.676Z,9.56
2019-02-24T00:22:01.712Z,10.59
2019-02-24T00:23:02.804Z,10.31
2019-02-24T00:24:03.045Z,9.11
2019-02-24T00:25:03.459Z,8.82
2019-02-24T00:26:04.645Z,10.68
2019-02-24T00:27:03.670Z,9.02
2019-02-24T00:28:07.068Z,9.54
2019-02-24T00:29:03.377Z,9.39
2019-02-24T00:30:02.998Z,7.38
2019-02-24T00:31:03.419Z,6.75
2019-02-24T00:32:03.580Z,8.94
2019-02-24T00:33:03.068Z,7.58
2019-02-24T00:34:03.615Z,8.47
2019-02-24T00:35:02.870Z,9.58
2019-02-24T00:36:03.568Z,8.73
2019-02-24T00:37:02.772Z,8.73
2019-02-24T00:38:03.513Z,8.4
2019-02-24T00:39:03.002Z,8.4
2019-02-24T00:40:03.390Z,7.62
2019-02-24T00:41:03.261Z,9.57
2019-02-24T00:42:03.358Z,11.18
2019-02-24T00:43:03.597Z,7.71
2019-02-24T00:44:02.693Z,7.71
2019-02-24T00:45:03.129Z,11.38
2019-02-24T00:46:02.689Z,10.71
2019-02-24T00:47:03.129Z,10.71
2019-02-24T00:48:02.894Z,9.97
2019-02-24T00:49:03.645Z,10.38
2019-02-24T00:50:03.206Z,13.06
2019-02-24T00:51:03.427Z,12.19
2019-02-24T00:52:03.149Z,14.08
2019-02-24T00:53:03.681Z,11.19
2019-02-24T00:54:03.257Z,8.69
2019-02-24T00:55:03.008Z,16.1
2019-02-24T00:56:03.057Z,11.36
2019-02-24T00:57:03.361Z,8.06
2019-02-24T00:58:03.022Z,10.09
2019-02-24T00:59:03.380Z,8.38
2019-02-24T01:00:02.834Z,8.11
2019-02-24T01:01:03.696Z,9.34
2019-02-24T01:02:02.821Z,8.01
2019-02-24T01:03:02.947Z,8.63
2019-02-24T01:04:03.097Z,7.39
2019-02-24T01:05:03.728Z,7.92
2019-02-24T01:06:03.198Z,10.15
2019-02-24T01:07:03.406Z,9.18
2019-02-24T01:08:02.818Z,10.79
2019-02-24T01:09:03.365Z,8.62
2019-02-24T01:10:02.952Z,16.44
2019-02-24T01:11:03.239Z,10.72
2019-02-24T01:12:02.652Z,8.86
2019-02-24T01:13:03.093Z,11.99
2019-02-24T01:14:03.721Z,7.83
2019-02-24T01:15:03.399Z,11.05
2019-02-24T01:16:02.804Z,11.48
2019-02-24T01:17:03.229Z,7.89
2019-02-24T01:18:03.786Z,8.54
2019-02-24T01:19:02.881Z,12.12
2019-02-24T01:20:03.439Z,8.99
2019-02-24T01:21:02.688Z,10.26
2019-02-24T01:22:03.654Z,9.49
2019-02-24T01:23:03.001Z,9.29
2019-02-24T01:24:03.538Z,9.68
2019-02-24T01:25:03.034Z,10.28
2019-02-24T01:26:03.220Z,9.65
2019-02-24T01:27:03.604Z,9.65
2019-02-24T01:28:03.183Z,9.02
2019-02-24T01:29:02.770Z,9.02
2019-02-24T01:30:03.369Z,7.5
2019-02-24T01:31:02.871Z,6.99
2019-02-24T01:32:03.424Z,6.99
2019-02-24T01:33:02.844Z,8.76
2019-02-24T01:34:03.117Z,13.52
2019-02-24T01:35:02.783Z,8.11
2019-02-24T01:36:03.097Z,13.42
2019-02-24T01:37:03.484Z,8.75
2019-02-24T01:38:03.036Z,7.86
2019-02-24T01:39:03.708Z,9.41
2019-02-24T01:40:02.996Z,9.56
2019-02-24T01:41:02.780Z,14.08
2019-02-24T01:42:02.774Z,12.31
2019-02-24T01:43:03.686Z,8.12
2019-02-24T01:44:02.781Z,8.08
2019-02-24T01:45:03.611Z,10.68
2019-02-24T01:46:02.792Z,8.34
2019-02-24T01:47:03.511Z,12.22
2019-02-24T01:48:02.628Z,7.51
2019-02-24T01:49:03.365Z,9.06
2019-02-24T01:50:03.643Z,7.5
2019-02-24T01:51:03.172Z,9.09
2019-02-24T01:52:04.428Z,12.14
2019-02-24T01:53:02.675Z,8.48
2019-02-24T01:54:03.401Z,11.07
2019-02-24T01:55:03.687Z,9.48
2019-02-24T01:56:02.838Z,7.74
2019-02-24T01:57:02.693Z,9.89
2019-02-24T01:58:03.235Z,7.86
2019-02-24T01:59:03.593Z,9.17
2019-02-24T02:00:03.380Z,9.39
2019-02-24T02:01:02.660Z,12.19
2019-02-24T02:02:02.856Z,8.21
2019-02-24T02:03:03.485Z,9.08
2019-02-24T02:04:03.319Z,8.81
2019-02-24T02:05:03.378Z,8.36
2019-02-24T02:06:02.784Z,8.56
2019-02-24T02:07:03.131Z,8.04
2019-02-24T02:08:03.503Z,9.18
2019-02-24T02:09:02.974Z,6.85
2019-02-24T02:10:03.899Z,10.1
2019-02-24T02:11:02.909Z,6.1
2019-02-24T02:12:03.447Z,9.97
2019-02-24T02:13:03.110Z,8.62
2019-02-24T02:14:03.446Z,8.62
2019-02-24T02:15:03.011Z,11.59
2019-02-24T02:16:03.206Z,10.15
2019-02-24T02:17:02.775Z,8.44
2019-02-24T02:18:02.928Z,9.01
2019-02-24T02:19:02.596Z,9.01
2019-02-24T02:20:02.997Z,9.45
2019-02-24T02:21:03.289Z,9.45
2019-02-24T02:22:03.485Z,7.79
2019-02-24T02:23:02.779Z,9.77
2019-02-24T02:24:02.632Z,9.77
2019-02-24T02:25:03.399Z,7.38
2019-02-24T02:26:02.575Z,9.35
2019-02-24T02:27:03.373Z,11.65
2019-02-24T02:28:03.667Z,9.33
2019-02-24T02:29:03.169Z,10.68
2019-02-24T02:30:03.596Z,9.12
2019-02-24T02:31:02.737Z,8.67
2019-02-24T02:32:03.455Z,7.5
2019-02-24T02:33:02.935Z,9.5
2019-02-24T02:34:03.320Z,9.01
2019-02-24T02:35:03.244Z,11.42
2019-02-24T02:36:03.291Z,10.98
2019-02-24T02:37:02.889Z,8.71
2019-02-24T02:38:03.532Z,10.32
2019-02-24T02:39:03.087Z,9.59
2019-02-24T02:40:03.536Z,9.99
2019-02-24T02:41:02.955Z,8.74
2019-02-24T02:42:03.059Z,10.04
2019-02-24T02:43:02.835Z,9.99
2019-02-24T02:44:03.523Z,7.04
2019-02-24T02:45:03.037Z,7.87
2019-02-24T02:46:03.273Z,8.28
2019-02-24T02:47:02.627Z,8.82
2019-02-24T02:48:02.823Z,9.51
2019-02-24T02:49:04.557Z,8.42
2019-02-24T02:50:03.172Z,12.07
2019-02-24T02:51:03.521Z,9.33
2019-02-24T02:52:02.782Z,9.94
2019-02-24T02:53:03.028Z,8.83
2019-02-24T02:54:03.651Z,12.86
2019-02-24T02:55:02.937Z,6.55
2019-02-24T02:56:02.633Z,7.7
2019-02-24T02:57:03.045Z,9.5
2019-02-24T02:58:03.261Z,12.31
2019-02-24T02:59:02.824Z,9.25
2019-02-24T03:00:03.223Z,8.23
2019-02-24T03:01:03.626Z,13.77
2019-02-24T03:02:03.418Z,9.17
2019-02-24T03:03:02.812Z,8.75
2019-02-24T03:04:03.055Z,10.58
2019-02-24T03:05:03.469Z,12.49
2019-02-24T03:06:02.638Z,12.49
2019-02-24T03:07:03.334Z,13.09
2019-02-24T03:08:03.544Z,8.24
2019-02-24T03:09:03.067Z,8.24
2019-02-24T03:10:03.804Z,10.04
2019-02-24T03:11:03.072Z,12.18
2019-02-24T03:12:02.809Z,12.18
2019-02-24T03:13:03.102Z,13.86
2019-02-24T03:14:02.976Z,12.69
2019-02-24T03:15:03.638Z,9.51
2019-02-24T03:16:03.648Z,10.82
2019-02-24T03:17:03.240Z,9.13
2019-02-24T03:18:03.501Z,8.45
2019-02-24T03:19:03.372Z,9.69
2019-02-24T03:20:02.638Z,11.86
2019-02-24T03:21:03.081Z,9.54
2019-02-24T03:22:02.804Z,9.62
2019-02-24T03:23:03.106Z,13.85
2019-02-24T03:24:03.540Z,11.06
2019-02-24T03:25:03.041Z,8.74
2019-02-24T03:26:02.690Z,9.96
2019-02-24T03:27:02.912Z,8.38
2019-02-24T03:28:03.457Z,11.28
2019-02-24T03:29:04.218Z,8.58
2019-02-24T03:30:03.628Z,9.62
2019-02-24T03:31:02.697Z,12
2019-02-24T03:32:03.046Z,10.46
2019-02-24T03:33:03.536Z,9.36
2019-02-24T03:34:02.797Z,9.97
2019-02-24T03:35:03.748Z,8.06
2019-02-24T03:36:02.832Z,11.59
2019-02-24T03:37:03.251Z,11.35
2019-02-24T03:38:02.541Z,11.65
2019-02-24T03:39:03.625Z,11.28
2019-02-24T03:40:03.022Z,11.72
2019-02-24T03:41:03.242Z,10.05
2019-02-24T03:42:03.763Z,10.94
2019-02-24T03:43:03.075Z,11.12
2019-02-24T03:44:03.363Z,11.31
2019-02-24T03:45:02.868Z,10.24
2019-02-24T03:46:03.646Z,9.76
2019-02-24T03:47:03.235Z,15.34
2019-02-24T03:48:03.424Z,12.47
2019-02-24T03:49:02.653Z,12.25
2019-02-24T03:50:03.425Z,10.8
2019-02-24T03:51:02.774Z,12.15
2019-02-24T03:52:03.157Z,11.74
2019-02-24T03:53:02.777Z,13.56
2019-02-24T03:54:02.863Z,11.54
2019-02-24T03:55:03.577Z,15.2
2019-02-24T03:56:02.849Z,13.36
2019-02-24T03:57:03.659Z,9.28
2019-02-24T03:58:02.729Z,11.71
2019-02-24T03:59:03.234Z,10.67
2019-02-24T04:00:03.274Z,14.04
2019-02-24T04:01:03.759Z,14.04
2019-02-24T04:02:03.038Z,10.63
2019-02-24T04:03:03.439Z,11.86
2019-02-24T04:04:03.091Z,11.44
2019-02-24T04:05:03.728Z,12.95
2019-02-24T04:06:03.550Z,11.76
2019-02-24T04:07:03.418Z,13.88
2019-02-24T04:08:02.960Z,12.31
2019-02-24T04:09:03.231Z,14.11
2019-02-24T04:10:02.648Z,9.81
2019-02-24T04:11:03.528Z,8.44
2019-02-24T04:12:02.947Z,12.99
2019-02-24T04:13:03.310Z,16.36
2019-02-24T04:14:02.851Z,10.09
2019-02-24T04:15:03.450Z,11.78
2019-02-24T04:16:03.277Z,13.72
2019-02-24T04:17:02.827Z,11.04
2019-02-24T04:18:03.528Z,12.13
2019-02-24T04:19:02.758Z,11.55
2019-02-24T04:20:02.678Z,15.18
2019-02-24T04:21:03.802Z,11.23
2019-02-24T04:22:03.020Z,11.23
2019-02-24T04:23:03.481Z,14.22
2019-02-24T04:24:02.829Z,12.76
2019-02-24T04:25:03.417Z,12.41
2019-02-24T04:26:02.921Z,12.29
2019-02-24T04:27:03.262Z,13.47
2019-02-24T04:28:02.828Z,11.37
2019-02-24T04:29:03.140Z,9.66
2019-02-24T04:30:03.783Z,16.37
2019-02-24T04:31:03.119Z,9.7
2019-02-24T04:32:03.465Z,11.41
2019-02-24T04:33:02.845Z,15.04
2019-02-24T04:34:03.008Z,10.62
2019-02-24T04:35:03.603Z,12.94
2019-02-24T04:36:03.027Z,12.34
2019-02-24T04:37:03.818Z,11.65
2019-02-24T04:38:02.738Z,18.56
2019-02-24T04:39:03.442Z,13.29
2019-02-24T04:40:02.871Z,11.63
2019-02-24T04:41:03.506Z,9.79
2019-02-24T04:42:02.685Z,9.14
2019-02-24T04:43:03.147Z,13.5
2019-02-24T04:44:02.980Z,11.48
2019-02-24T04:45:03.131Z,13.64
2019-02-24T04:46:03.415Z,13.64
2019-02-24T04:47:03.028Z,14.95
2019-02-24T04:48:03.187Z,14.95
2019-02-24T04:49:02.670Z,13.7
2019-02-24T04:50:03.289Z,13.61
2019-02-24T04:51:03.582Z,13.61
2019-02-24T04:52:02.929Z,12.29
2019-02-24T04:53:03.347Z,12.82
2019-02-24T04:54:02.944Z,14.42
2019-02-24T04:55:03.180Z,14.53
2019-02-24T04:56:02.948Z,13.21
2019-02-24T04:57:03.363Z,15.94
2019-02-24T04:58:03.939Z,12.06
2019-02-24T04:59:03.131Z,13.93
2019-02-24T05:00:02.874Z,12.9
2019-02-24T05:01:03.115Z,12.01
2019-02-24T05:02:02.681Z,13.36
2019-02-24T05:03:03.176Z,11.89
2019-02-24T05:04:02.726Z,11.58
2019-02-24T05:05:03.174Z,16.11
2019-02-24T05:06:02.787Z,16.03
2019-02-24T05:07:03.049Z,16.23
2019-02-24T05:08:03.545Z,12.63
2019-02-24T05:09:03.189Z,13.42
2019-02-24T05:10:02.995Z,13.78
2019-02-24T05:11:02.792Z,13.02
2019-02-24T05:12:03.373Z,17.16
2019-02-24T05:13:02.980Z,17.34
2019-02-24T05:14:03.149Z,16.54
2019-02-24T05:15:03.719Z,14.88
2019-02-24T05:16:03.534Z,11.95
2019-02-24T05:17:03.014Z,11.64
2019-02-24T05:18:03.488Z,12.85
2019-02-24T05:19:03.109Z,13.66
2019-02-24T05:20:03.679Z,13.34
2019-02-24T05:21:03.255Z,16.22
2019-02-24T05:22:03.421Z,12.76
2019-02-24T05:23:02.806Z,17.01
2019-02-24T05:24:03.218Z,13.47
2019-02-24T05:25:03.722Z,17.42
2019-02-24T05:26:03.175Z,13.38
2019-02-24T05:27:02.764Z,13.75
2019-02-24T05:28:02.848Z,13.15
2019-02-24T05:29:03.213Z,13.85
2019-02-24T05:30:02.868Z,13.1
2019-02-24T05:31:03.571Z,15.7
2019-02-24T05:32:02.716Z,15.08
2019-02-24T05:33:03.382Z,16.94
2019-02-24T05:34:02.599Z,10.76
2019-02-24T05:35:03.389Z,16.31
2019-02-24T05:36:03.576Z,14.36
2019-02-24T05:37:03.336Z,14.36
2019-02-24T05:38:02.727Z,14.39
2019-02-24T05:39:03.073Z,11.35
2019-02-24T05:40:02.820Z,11.35
2019-02-24T05:41:02.875Z,12.84
2019-02-24T05:42:03.278Z,10.93
2019-02-24T05:43:02.876Z,13.23
2019-02-24T05:44:03.486Z,15.4
2019-02-24T05:45:02.894Z,13.25
2019-02-24T05:46:03.738Z,13.38
2019-02-24T05:47:02.795Z,15.68
2019-02-24T05:48:03.248Z,13.85
2019-02-24T05:49:03.524Z,12.44
2019-02-24T05:50:03.566Z,12.36
2019-02-24T05:51:02.950Z,13.52
2019-02-24T05:52:03.442Z,12.38
2019-02-24T05:53:03.592Z,14.22
2019-02-24T05:54:02.963Z,11.47
2019-02-24T05:55:03.450Z,10.52
2019-02-24T05:56:02.898Z,15.71
2019-02-24T05:57:03.711Z,12.25
2019-02-24T05:58:02.780Z,12.58
2019-02-24T05:59:03.670Z,15.32
2019-02-24T06:00:03.031Z,16.46
2019-02-24T06:01:03.446Z,13.59
2019-02-24T06:02:03.562Z,11.73
2019-02-24T06:03:03.507Z,12.98
2019-02-24T06:04:02.731Z,14.32
2019-02-24T06:05:03.429Z,13.47
2019-02-24T06:06:03.638Z,12.28
2019-02-24T06:07:02.842Z,10.78
2019-02-24T06:08:03.330Z,10.44
2019-02-24T06:09:03.075Z,9.26
2019-02-24T06:10:03.346Z,14.89
2019-02-24T06:11:02.847Z,13.91
2019-02-24T06:12:03.510Z,12.09
2019-02-24T06:13:02.601Z,10.9
2019-02-24T06:14:03.201Z,11.54
2019-02-24T06:15:03.837Z,11.44
2019-02-24T06:16:02.707Z,13.3
2019-02-24T06:17:03.694Z,13.03
2019-02-24T06:18:03.212Z,12.31
2019-02-24T06:19:03.500Z,10.31
2019-02-24T06:20:03.179Z,11.26
2019-02-24T06:21:03.544Z,10.81
2019-02-24T06:22:03.528Z,11.86
2019-02-24T06:23:03.136Z,10.78
2019-02-24T06:24:02.920Z,14.49
2019-02-24T06:25:03.218Z,10.79
2019-02-24T06:26:03.496Z,10.79
2019-02-24T06:27:02.998Z,10.72
2019-02-24T06:28:03.475Z,10.72
2019-02-24T06:29:02.799Z,11.42
2019-02-24T06:30:05.170Z,10.2
2019-02-24T06:31:02.957Z,12.76
2019-02-24T06:32:03.443Z,9.84
2019-02-24T06:33:02.884Z,9.14
2019-02-24T06:34:03.249Z,12.31
2019-02-24T06:35:03.015Z,11.55
2019-02-24T06:36:03.109Z,13.75
2019-02-24T06:37:02.802Z,12.35
2019-02-24T06:38:02.860Z,7.91
2019-02-24T06:39:03.658Z,19.05
2019-02-24T06:40:02.793Z,14.15
2019-02-24T06:41:03.759Z,11.44
2019-02-24T06:42:03.052Z,11.52
2019-02-24T06:43:03.587Z,15.47
2019-02-24T06:44:03.169Z,14.58
2019-02-24T06:45:03.546Z,12.24
2019-02-24T06:46:02.970Z,17.19
2019-02-24T06:47:03.563Z,14.16
2019-02-24T06:48:03.055Z,13.86
2019-02-24T06:49:03.282Z,11.58
2019-02-24T06:50:02.972Z,12.14
2019-02-24T06:51:03.429Z,19.64
2019-02-24T06:52:02.721Z,14.49
2019-02-24T06:53:03.154Z,13.71
2019-02-24T06:54:03.516Z,14.09
2019-02-24T06:55:03.004Z,12.3
2019-02-24T06:56:02.695Z,12.44
2019-02-24T06:57:03.097Z,15.45
2019-02-24T06:58:02.821Z,11.25
2019-02-24T06:59:03.284Z,15.28
2019-02-24T07:00:03.633Z,14.96
2019-02-24T07:01:02.889Z,11.79
2019-02-24T07:02:03.596Z,20.15
2019-02-24T07:03:02.941Z,9.84
2019-02-24T07:04:03.336Z,9.94
2019-02-24T07:05:03.357Z,11.34
2019-02-24T07:06:02.692Z,13.81
2019-02-24T07:07:03.033Z,11.45
2019-02-24T07:08:02.775Z,12.03
2019-02-24T07:09:03.265Z,11.66
2019-02-24T07:10:02.901Z,14.03
2019-02-24T07:11:03.290Z,14.27
2019-02-24T07:12:02.789Z,14.71
2019-02-24T07:13:02.980Z,8.83
2019-02-24T07:14:03.535Z,8.83
2019-02-24T07:15:02.992Z,12.71
2019-02-24T07:16:03.431Z,10.48
2019-02-24T07:17:03.654Z,10.48
2019-02-24T07:18:03.676Z,11.57
2019-02-24T07:19:03.763Z,11.57
2019-02-24T07:20:03.111Z,15.14
2019-02-24T07:21:03.171Z,11.96
2019-02-24T07:22:03.734Z,10.56
2019-02-24T07:23:03.125Z,11.95
2019-02-24T07:24:02.954Z,13.52
2019-02-24T07:25:03.241Z,11.38
2019-02-24T07:26:03.258Z,11.33
2019-02-24T07:27:03.048Z,11.42
2019-02-24T07:28:03.539Z,10.75
2019-02-24T07:29:03.408Z,14.81
2019-02-24T07:30:02.870Z,13.11
2019-02-24T07:31:03.465Z,11.28
2019-02-24T07:32:02.507Z,13.38
2019-02-24T07:33:03.024Z,9.71
2019-02-24T07:34:02.542Z,11.26
2019-02-24T07:35:03.179Z,14.42
2019-02-24T07:36:03.599Z,12.19
2019-02-24T07:37:03.244Z,14.46
2019-02-24T07:38:03.621Z,10.36
2019-02-24T07:39:03.261Z,12.58
2019-02-24T07:40:03.526Z,10.56
2019-02-24T07:41:03.078Z,11.49
2019-02-24T07:42:03.292Z,11.57
2019-02-24T07:43:02.905Z,11.61
2019-02-24T07:44:03.361Z,11.61
2019-02-24T07:45:02.952Z,11.79
2019-02-24T07:46:03.357Z,10.49
2019-02-24T07:47:02.540Z,9.39
2019-02-24T07:48:03.313Z,7.62
2019-02-24T07:49:02.848Z,13.62
2019-02-24T07:50:03.278Z,10.78
2019-02-24T07:51:02.610Z,12.46
2019-02-24T07:52:03.161Z,11.75
2019-02-24T07:53:02.711Z,13.88
2019-02-24T07:54:03.223Z,10.4
2019-02-24T07:55:02.802Z,10.06
2019-02-24T07:56:03.159Z,10.84
2019-02-24T07:57:02.506Z,13.83
2019-02-24T07:58:02.786Z,10.57
2019-02-24T07:59:03.479Z,10.58
2019-02-24T08:00:03.057Z,10.06
2019-02-24T08:01:02.740Z,12.26
2019-02-24T08:02:03.162Z,10.33
2019-02-24T08:03:03.639Z,10.15
2019-02-24T08:04:03.089Z,11.75
2019-02-24T08:05:03.838Z,11.75
2019-02-24T08:06:03.173Z,8.78
2019-02-24T08:07:03.561Z,12.81
2019-02-24T08:08:03.558Z,12.81
2019-02-24T08:09:03.454Z,9.95
2019-02-24T08:10:02.784Z,9.72
2019-02-24T08:11:03.191Z,9.72
2019-02-24T08:12:02.942Z,13.94
2019-02-24T08:13:03.352Z,13.48
2019-02-24T08:14:03.806Z,8.99
2019-02-24T08:15:03.298Z,17.24
2019-02-24T08:16:03.467Z,11.16
2019-02-24T08:17:02.966Z,12.46
2019-02-24T08:18:03.417Z,10.41
2019-02-24T08:19:02.850Z,9.5
2019-02-24T08:20:03.144Z,13.76
2019-02-24T08:21:02.800Z,9.38
2019-02-24T08:22:03.034Z,11.66
2019-02-24T08:23:03.604Z,10.41
2019-02-24T08:24:02.824Z,11.36
2019-02-24T08:25:03.414Z,11.68
2019-02-24T08:26:02.905Z,10.43
2019-02-24T08:27:02.540Z,9.66
2019-02-24T08:28:03.098Z,9.28
2019-02-24T08:29:03.557Z,9.74
2019-02-24T08:30:03.226Z,12.16
2019-02-24T08:31:03.661Z,13.6
2019-02-24T08:32:02.990Z,10.24
2019-02-24T08:33:03.505Z,10.07
2019-02-24T08:34:02.971Z,11.54
2019-02-24T08:35:03.428Z,11.12
2019-02-24T08:36:02.886Z,11.79
2019-02-24T08:37:03.449Z,11.63
2019-02-24T08:38:02.839Z,10.39
2019-02-24T08:39:03.624Z,9.38
2019-02-24T08:40:02.871Z,11.81
2019-02-24T08:41:03.375Z,16.92
2019-02-24T08:42:03.153Z,10.07
2019-02-24T08:43:03.157Z,12.72
2019-02-24T08:44:02.646Z,11.48
2019-02-24T08:45:03.185Z,10.05
2019-02-24T08:46:03.690Z,10.89
2019-02-24T08:47:02.950Z,11.84
2019-02-24T08:48:03.402Z,12.28
2019-02-24T08:49:03.553Z,10.65
2019-02-24T08:50:02.966Z,10.92
2019-02-24T08:51:03.387Z,8.25
2019-02-24T08:52:03.242Z,9.52
2019-02-24T08:53:03.301Z,9.97
2019-02-24T08:54:03.087Z,9.97
2019-02-24T08:55:03.633Z,9.98
2019-02-24T08:56:03.742Z,10.36
2019-02-24T08:57:03.304Z,10.36
2019-02-24T08:58:03.596Z,10.31
2019-02-24T08:59:03.279Z,10.31
2019-02-24T09:00:02.927Z,9.69
2019-02-24T09:01:03.240Z,9.41
2019-02-24T09:02:03.329Z,14.15
2019-02-24T09:03:02.815Z,19.41
2019-02-24T09:04:03.540Z,9.21
2019-02-24T09:05:03.484Z,10.84
2019-02-24T09:06:03.206Z,9.72
2019-02-24T09:07:03.620Z,10.87
2019-02-24T09:08:03.031Z,8.77
2019-02-24T09:09:03.559Z,9.33
2019-02-24T09:10:03.024Z,15.21
2019-02-24T09:11:03.526Z,10.42
2019-02-24T09:12:02.901Z,8.46
2019-02-24T09:13:03.182Z,11.48
2019-02-24T09:14:02.881Z,8.64
2019-02-24T09:15:03.326Z,9.44
2019-02-24T09:16:03.498Z,9.73
2019-02-24T09:17:03.154Z,9.85
2019-02-24T09:18:02.822Z,11.93
2019-02-24T09:19:02.949Z,11.69
2019-02-24T09:20:03.756Z,8.51
2019-02-24T09:21:02.847Z,14.38
2019-02-24T09:22:02.757Z,13.34
2019-02-24T09:23:03.275Z,9.41
2019-02-24T09:24:02.635Z,7.35
2019-02-24T09:25:03.637Z,12.86
2019-02-24T09:26:02.751Z,10.15
2019-02-24T09:27:03.233Z,8.07
2019-02-24T09:28:02.809Z,10.39
2019-02-24T09:29:03.021Z,11.89
2019-02-24T09:30:02.953Z,10.52
2019-02-24T09:31:03.233Z,8.6
2019-02-24T09:32:02.968Z,11.82
2019-02-24T09:33:03.402Z,10.41
2019-02-24T09:34:02.728Z,12.81
2019-02-24T09:35:03.446Z,10.49
2019-02-24T09:36:02.753Z,11.11
2019-02-24T09:37:03.336Z,9.69
2019-02-24T09:38:02.996Z,8.76
2019-02-24T09:39:03.066Z,8.04
2019-02-24T09:40:03.797Z,11.28
2019-02-24T09:41:03.000Z,10.79
2019-02-24T09:42:03.602Z,7.51
2019-02-24T09:43:03.124Z,8.48
2019-02-24T09:44:03.676Z,10.56
2019-02-24T09:45:02.993Z,10.56
2019-02-24T09:46:03.058Z,8.98
2019-02-24T09:47:03.437Z,10.91
2019-02-24T09:48:03.088Z,10.91
2019-02-24T09:49:02.874Z,13.3
2019-02-24T09:50:03.545Z,10.56
2019-02-24T09:51:03.462Z,10.56
2019-02-24T09:52:03.031Z,10.5
2019-02-24T09:53:03.290Z,9.61
2019-02-24T09:54:02.593Z,10.36
2019-02-24T09:55:03.191Z,8.56
2019-02-24T09:56:02.798Z,8.94
2019-02-24T09:57:03.414Z,9.88
2019-02-24T09:58:02.821Z,7.7
2019-02-24T09:59:02.916Z,10.02
2019-02-24T10:00:03.340Z,8.22
2019-02-24T10:01:10.144Z,8.81
2019-02-24T10:02:03.650Z,13.91
2019-02-24T10:03:03.238Z,10.97
2019-02-24T10:04:03.664Z,9.69
2019-02-24T10:05:03.330Z,8.54
2019-02-24T10:06:03.042Z,12.79
2019-02-24T10:07:02.721Z,8.32
2019-02-24T10:08:03.277Z,10.91
2019-02-24T10:09:02.796Z,7.84
2019-02-24T10:10:03.577Z,9.96
2019-02-24T10:11:03.657Z,8.75
2019-02-24T10:12:02.856Z,8.29
2019-02-24T10:13:03.641Z,10.12
2019-02-24T10:14:02.937Z,8.06
2019-02-24T10:15:03.237Z,6.65
2019-02-24T10:16:03.024Z,8.42
2019-02-24T10:17:03.398Z,7.55
2019-02-24T10:18:02.572Z,8.15
2019-02-24T10:19:03.021Z,6.86
2019-02-24T10:20:02.759Z,12.83
2019-02-24T10:21:01.897Z,8.56
2019-02-24T10:22:02.498Z,8.01
2019-02-24T10:23:03.270Z,10.22
2019-02-24T10:24:03.668Z,9.99
2019-02-24T10:25:03.171Z,9.09
2019-02-24T10:26:03.478Z,11.04
2019-02-24T10:27:02.807Z,9.28
2019-02-24T10:28:03.343Z,9.44
2019-02-24T10:29:02.993Z,10.48
2019-02-24T10:30:03.832Z,11.89
2019-02-24T10:31:03.543Z,8.76
2019-02-24T10:32:03.188Z,8.77
2019-02-24T10:33:03.552Z,10.23
2019-02-24T10:34:03.079Z,8.5
2019-02-24T10:35:03.574Z,11
2019-02-24T10:36:03.010Z,11
2019-02-24T10:37:03.453Z,8.34
2019-02-24T10:38:03.838Z,9.6
2019-02-24T10:39:03.015Z,9.6
2019-02-24T10:40:03.122Z,10.64
2019-02-24T10:41:02.118Z,12.14
2019-02-24T10:42:03.606Z,12.14
2019-02-24T10:43:03.211Z,10.18
2019-02-24T10:44:03.466Z,22.14
2019-02-24T10:45:03.066Z,15.57
2019-02-24T10:46:03.022Z,23.36
2019-02-24T10:47:02.996Z,43.86
2019-02-24T10:48:03.381Z,47.55
2019-02-24T10:49:03.709Z,42.75
2019-02-24T10:50:03.065Z,32.34
2019-02-24T10:51:03.519Z,18.99
2019-02-24T10:52:02.721Z,15.64
2019-02-24T10:53:03.412Z,14.18
2019-02-24T10:54:02.879Z,9.35
2019-02-24T10:55:02.648Z,17.29
2019-02-24T10:56:03.612Z,13.36
2019-02-24T10:57:03.191Z,9.47
2019-02-24T10:58:03.424Z,10.98
2019-02-24T10:59:03.299Z,13.05
2019-02-24T11:00:03.665Z,8.95
2019-02-24T11:01:03.403Z,14.71
2019-02-24T11:02:02.882Z,9.35
2019-02-24T11:03:03.010Z,8.93
2019-02-24T11:04:03.568Z,8.22
2019-02-24T11:05:02.762Z,14.29
2019-02-24T11:06:03.405Z,11.15
2019-02-24T11:07:02.831Z,13.05
2019-02-24T11:08:03.091Z,7.38
2019-02-24T11:09:03.257Z,10.25
2019-02-24T11:10:03.908Z,7.13
2019-02-24T11:11:03.183Z,9.42
2019-02-24T11:12:03.298Z,9.98
2019-02-24T11:13:02.732Z,13.72
2019-02-24T11:14:03.627Z,8.67
2019-02-24T11:15:03.124Z,7.77
2019-02-24T11:16:03.442Z,10.76
2019-02-24T11:17:03.151Z,11.76
2019-02-24T11:18:02.801Z,9.29
2019-02-24T11:19:03.498Z,8.96
2019-02-24T11:20:03.161Z,8.76
2019-02-24T11:21:03.380Z,7.4
2019-02-24T11:22:02.941Z,9.98
2019-02-24T11:23:03.158Z,12.27
2019-02-24T11:24:02.805Z,8.75
2019-02-24T11:25:03.089Z,8.75
2019-02-24T11:26:03.399Z,14.68
2019-02-24T11:27:03.364Z,14.68
2019-02-24T11:28:03.360Z,9.44
2019-02-24T11:29:02.933Z,9.44
2019-02-24T11:30:02.970Z,15.88
2019-02-24T11:31:02.656Z,14.67
2019-02-24T11:32:02.966Z,14.67
2019-02-24T11:33:02.802Z,14.42
2019-02-24T11:34:03.290Z,9.18
2019-02-24T11:35:03.079Z,8.98
2019-02-24T11:36:03.319Z,9.18
2019-02-24T11:37:03.170Z,9.9
2019-02-24T11:38:03.149Z,8.85
2019-02-24T11:39:03.656Z,9.51
2019-02-24T11:40:02.889Z,7.96
2019-02-24T11:41:02.640Z,8.09
2019-02-24T11:42:03.298Z,8.01
2019-02-24T11:43:03.281Z,9.97
2019-02-24T11:44:02.952Z,8.38
2019-02-24T11:45:03.693Z,10.32
2019-02-24T11:46:02.625Z,9.81
2019-02-24T11:47:03.569Z,8.45
2019-02-24T11:48:02.943Z,12.88
2019-02-24T11:49:03.481Z,9.12
2019-02-24T11:50:03.067Z,10.21
2019-02-24T11:51:03.267Z,11.76
2019-02-24T11:52:03.952Z,8.16
2019-02-24T11:53:03.502Z,7.85
2019-02-24T11:54:02.773Z,10.49
2019-02-24T11:55:03.157Z,7.18
2019-02-24T11:56:03.520Z,11.14
2019-02-24T11:57:02.891Z,7.64
2019-02-24T11:58:03.596Z,9.95
2019-02-24T11:59:02.785Z,8.25
2019-02-24T12:00:03.598Z,8.44
2019-02-24T12:01:02.924Z,8.84
2019-02-24T12:02:03.516Z,8.97
2019-02-24T12:03:02.928Z,12.48
2019-02-24T12:04:03.469Z,9.51
2019-02-24T12:05:02.865Z,9.18
2019-02-24T12:06:03.479Z,8.88
2019-02-24T12:07:03.621Z,8.54
2019-02-24T12:08:02.875Z,8.14
2019-02-24T12:09:05.312Z,7.76
2019-02-24T12:10:02.859Z,8.45
2019-02-24T12:11:03.342Z,7.59
2019-02-24T12:12:02.963Z,9.66
2019-02-24T12:13:03.473Z,9.66
2019-02-24T12:14:03.735Z,8.64
2019-02-24T12:15:03.395Z,7.93
2019-02-24T12:16:03.283Z,7.93
2019-02-24T12:17:03.137Z,8.79
2019-02-24T12:18:03.533Z,11.39
2019-02-24T12:19:03.202Z,11.39
2019-02-24T12:20:03.423Z,9.18
2019-02-24T12:21:02.920Z,8.26
2019-02-24T12:22:02.985Z,10.42
2019-02-24T12:23:03.496Z,8.05
2019-02-24T12:24:03.473Z,9.26
2019-02-24T12:25:03.427Z,9.78
2019-02-24T12:26:02.907Z,9.32
2019-02-24T12:27:03.076Z,6.32
2019-02-24T12:28:03.220Z,8.38
2019-02-24T12:29:03.687Z,9.05
2019-02-24T12:30:03.161Z,12.95
2019-02-24T12:31:03.664Z,9.47
2019-02-24T12:32:03.164Z,10.1
2019-02-24T12:33:03.585Z,11.11
2019-02-24T12:34:02.864Z,9.51
2019-02-24T12:35:03.528Z,11.74
2019-02-24T12:36:03.049Z,9.84
2019-02-24T12:37:03.599Z,13.74
2019-02-24T12:38:02.954Z,9.03
2019-02-24T12:39:03.154Z,16.44
2019-02-24T12:40:03.833Z,20.16
2019-02-24T12:41:02.972Z,14.58
2019-02-24T12:42:01.949Z,10.05
2019-02-24T12:43:03.931Z,10.51
2019-02-24T12:44:03.817Z,12.19
2019-02-24T12:45:03.371Z,10.71
2019-02-24T12:46:03.153Z,8.72
2019-02-24T12:47:03.317Z,26.06
2019-02-24T12:48:02.946Z,24.55
2019-02-24T12:49:03.245Z,23.14
2019-02-24T12:50:03.788Z,18.04
2019-02-24T12:51:03.834Z,20.54
2019-02-24T12:52:03.110Z,20.7
2019-02-24T12:53:03.183Z,32.41
2019-02-24T12:54:02.895Z,28.17
2019-02-24T12:55:03.464Z,25.44
2019-02-24T12:56:03.750Z,22.68
2019-02-24T12:57:03.184Z,11.91
2019-02-24T12:58:03.621Z,18.55
2019-02-24T12:59:03.004Z,23.84
2019-02-24T13:00:03.510Z,23.91
2019-02-24T13:01:03.205Z,35.35
2019-02-24T13:02:05.804Z,33.69
2019-02-24T13:03:03.160Z,31.99
2019-02-24T13:04:03.333Z,25.52